CheckWX is a tool to help pilots better visualize weather data.  It is not intended as a substitute for an official pre-flight weather briefing.

07:39:31 UTC

MMLM TAF
Valle del Fuerte International Airport
Los Mochis, Mexico
TAF MMLM 190502Z 1906/2006 26006KT P6SM SKC FM191800 22010KT P6SM SCT240 BECMG 2003/2005 16004KT SKC

Jun-19@
06:00 UTC

Jun-19 @ 06:00 UTC

Jun-19@
18:00 UTC

Jun-19 @ 18:00 UTC

TAF MMLM 190502Z 1906/2006 26006KT P6SM SKC
Wind
  • 260° at 6 KTS
Cloud Levels
  • Clear skies

Jun-19@
18:00 UTC

Jun-19 @ 18:00 UTC

Jun-20@
03:00 UTC

Jun-20 @ 03:00 UTC

FM191800 22010KT P6SM SCT240

From

From Standard forecast or significant change

Wind
  • 220° at 10 KTS
Cloud Levels
  • Scattered at 24,000' AGL

Jun-20@
03:00 UTC

Jun-20 @ 03:00 UTC

Jun-20@
06:00 UTC

Jun-20 @ 06:00 UTC

BECMG 2003/2005 16004KT SKC

Becoming

Becoming Conditions expected by Thu, Jun 20, 2019 @ 05:00 UTC

Wind
  • 160° at 4 KTS
Cloud Levels
  • Clear skies